sensor_id;sensor_type;location;lat;lon;timestamp;temperature;humidity
12053;DHT22;6087;48.982;12.064;2023-04-07T00:02:03;5.80;1.00
12053;DHT22;6087;48.982;12.064;2023-04-07T00:04:31;5.80;1.00
12053;DHT22;6087;48.982;12.064;2023-04-07T00:06:58;5.80;1.00
12053;DHT22;6087;48.982;12.064;2023-04-07T00:09:25;5.70;1.00
12053;DHT22;6087;48.982;12.064;2023-04-07T00:11:52;5.70;1.00
12053;DHT22;6087;48.982;12.064;2023-04-07T00:14:19;5.70;1.00
12053;DHT22;6087;48.982;12.064;2023-04-07T00:16:46;5.60;1.00
12053;DHT22;6087;48.982;12.064;2023-04-07T00:19:13;5.60;1.00
12053;DHT22;6087;48.982;12.064;2023-04-07T00:21:44;5.60;1.00
12053;DHT22;6087;48.982;12.064;2023-04-07T00:24:11;5.60;1.00
12053;DHT22;6087;48.982;12.064;2023-04-07T00:26:38;5.60;1.00
12053;DHT22;6087;48.982;12.064;2023-04-07T00:29:05;5.60;1.00
12053;DHT22;6087;48.982;12.064;2023-04-07T00:31:32;5.60;1.00
12053;DHT22;6087;48.982;12.064;2023-04-07T00:33:59;5.50;1.00
12053;DHT22;6087;48.982;12.064;2023-04-07T00:36:26;5.50;1.00
12053;DHT22;6087;48.982;12.064;2023-04-07T00:38:54;5.50;1.00
12053;DHT22;6087;48.982;12.064;2023-04-07T00:41:22;5.50;1.00
12053;DHT22;6087;48.982;12.064;2023-04-07T00:43:49;5.50;1.00
12053;DHT22;6087;48.982;12.064;2023-04-07T00:46:17;5.50;1.00
12053;DHT22;6087;48.982;12.064;2023-04-07T00:48:46;5.50;1.00
12053;DHT22;6087;48.982;12.064;2023-04-07T00:51:13;5.40;1.00
12053;DHT22;6087;48.982;12.064;2023-04-07T00:53:40;5.50;1.00
12053;DHT22;6087;48.982;12.064;2023-04-07T00:56:08;5.40;1.00
12053;DHT22;6087;48.982;12.064;2023-04-07T00:58:35;5.40;1.00
12053;DHT22;6087;48.982;12.064;2023-04-07T01:01:06;5.40;1.00
12053;DHT22;6087;48.982;12.064;2023-04-07T01:03:38;5.30;1.00
12053;DHT22;6087;48.982;12.064;2023-04-07T01:06:07;5.30;1.00
12053;DHT22;6087;48.982;12.064;2023-04-07T01:08:46;5.30;1.00
12053;DHT22;6087;48.982;12.064;2023-04-07T01:11:21;5.20;1.00
12053;DHT22;6087;48.982;12.064;2023-04-07T01:13:52;5.20;1.00
12053;DHT22;6087;48.982;12.064;2023-04-07T01:16:29;5.20;1.00
12053;DHT22;6087;48.982;12.064;2023-04-07T01:19:00;5.10;1.00
12053;DHT22;6087;48.982;12.064;2023-04-07T01:21:33;5.10;1.00
12053;DHT22;6087;48.982;12.064;2023-04-07T01:24:10;5.10;1.00
12053;DHT22;6087;48.982;12.064;2023-04-07T01:26:48;5.00;1.00
12053;DHT22;6087;48.982;12.064;2023-04-07T01:29:42;5.00;1.00
12053;DHT22;6087;48.982;12.064;2023-04-07T01:32:13;5.00;1.00
12053;DHT22;6087;48.982;12.064;2023-04-07T01:34:41;5.00;1.00
12053;DHT22;6087;48.982;12.064;2023-04-07T01:37:09;4.90;1.00
12053;DHT22;6087;48.982;12.064;2023-04-07T01:39:37;4.90;1.00
12053;DHT22;6087;48.982;12.064;2023-04-07T01:42:05;4.90;1.00
12053;DHT22;6087;48.982;12.064;2023-04-07T01:44:36;4.90;1.00
12053;DHT22;6087;48.982;12.064;2023-04-07T01:47:05;4.80;1.00
12053;DHT22;6087;48.982;12.064;2023-04-07T01:49:43;4.80;1.00
12053;DHT22;6087;48.982;12.064;2023-04-07T01:52:11;4.80;1.00
12053;DHT22;6087;48.982;12.064;2023-04-07T01:54:38;4.80;1.00
12053;DHT22;6087;48.982;12.064;2023-04-07T01:57:05;4.70;1.00
12053;DHT22;6087;48.982;12.064;2023-04-07T01:59:32;4.70;1.00
12053;DHT22;6087;48.982;12.064;2023-04-07T02:02:02;4.70;1.00
12053;DHT22;6087;48.982;12.064;2023-04-07T02:04:34;4.70;1.00
12053;DHT22;6087;48.982;12.064;2023-04-07T02:07:08;4.70;1.00
12053;DHT22;6087;48.982;12.064;2023-04-07T02:09:38;4.60;1.00
12053;DHT22;6087;48.982;12.064;2023-04-07T02:12:08;4.60;1.00
12053;DHT22;6087;48.982;12.064;2023-04-07T02:14:37;4.50;1.00
12053;DHT22;6087;48.982;12.064;2023-04-07T02:17:05;4.50;1.00
12053;DHT22;6087;48.982;12.064;2023-04-07T02:19:33;4.50;1.00
12053;DHT22;6087;48.982;12.064;2023-04-07T02:22:02;4.50;1.00
12053;DHT22;6087;48.982;12.064;2023-04-07T02:24:30;4.40;1.00
12053;DHT22;6087;48.982;12.064;2023-04-07T02:26:57;4.40;1.00
12053;DHT22;6087;48.982;12.064;2023-04-07T02:29:26;4.40;1.00
12053;DHT22;6087;48.982;12.064;2023-04-07T02:31:54;4.40;1.00
12053;DHT22;6087;48.982;12.064;2023-04-07T02:34:21;4.30;1.00
12053;DHT22;6087;48.982;12.064;2023-04-07T02:36:49;4.30;1.00
12053;DHT22;6087;48.982;12.064;2023-04-07T02:39:16;4.20;1.00
12053;DHT22;6087;48.982;12.064;2023-04-07T02:41:43;4.20;1.00
12053;DHT22;6087;48.982;12.064;2023-04-07T02:44:10;4.20;1.00
12053;DHT22;6087;48.982;12.064;2023-04-07T02:46:37;4.10;1.00
12053;DHT22;6087;48.982;12.064;2023-04-07T02:49:04;4.10;1.00
12053;DHT22;6087;48.982;12.064;2023-04-07T02:51:31;4.10;1.00
12053;DHT22;6087;48.982;12.064;2023-04-07T02:53:59;4.10;1.00
12053;DHT22;6087;48.982;12.064;2023-04-07T02:56:26;4.10;1.00
12053;DHT22;6087;48.982;12.064;2023-04-07T02:58:53;4.00;1.00
12053;DHT22;6087;48.982;12.064;2023-04-07T03:01:20;4.00;1.00
12053;DHT22;6087;48.982;12.064;2023-04-07T03:03:47;4.00;1.00
12053;DHT22;6087;48.982;12.064;2023-04-07T03:08:54;4.00;1.00
12053;DHT22;6087;48.982;12.064;2023-04-07T03:11:22;3.90;1.00
12053;DHT22;6087;48.982;12.064;2023-04-07T03:13:55;3.90;1.00
12053;DHT22;6087;48.982;12.064;2023-04-07T03:16:22;3.90;1.00
12053;DHT22;6087;48.982;12.064;2023-04-07T03:18:49;3.90;1.00
12053;DHT22;6087;48.982;12.064;2023-04-07T03:21:16;3.90;1.00
12053;DHT22;6087;48.982;12.064;2023-04-07T03:23:50;3.80;1.00
12053;DHT22;6087;48.982;12.064;2023-04-07T03:26:17;3.80;1.00
12053;DHT22;6087;48.982;12.064;2023-04-07T03:28:45;3.80;1.00
12053;DHT22;6087;48.982;12.064;2023-04-07T03:31:12;3.70;1.00
12053;DHT22;6087;48.982;12.064;2023-04-07T03:33:39;3.70;1.00
12053;DHT22;6087;48.982;12.064;2023-04-07T03:36:06;3.70;1.00
12053;DHT22;6087;48.982;12.064;2023-04-07T03:38:33;3.70;1.00
12053;DHT22;6087;48.982;12.064;2023-04-07T03:41:00;3.70;1.00
12053;DHT22;6087;48.982;12.064;2023-04-07T03:43:27;3.60;1.00
12053;DHT22;6087;48.982;12.064;2023-04-07T03:45:56;3.60;1.00
12053;DHT22;6087;48.982;12.064;2023-04-07T03:48:23;3.60;1.00
12053;DHT22;6087;48.982;12.064;2023-04-07T03:50:50;3.60;1.00
12053;DHT22;6087;48.982;12.064;2023-04-07T03:53:17;3.60;1.00
12053;DHT22;6087;48.982;12.064;2023-04-07T03:55:44;3.50;1.00
12053;DHT22;6087;48.982;12.064;2023-04-07T03:58:11;3.50;1.00
12053;DHT22;6087;48.982;12.064;2023-04-07T04:00:39;3.50;1.00
12053;DHT22;6087;48.982;12.064;2023-04-07T04:03:07;3.50;1.00
12053;DHT22;6087;48.982;12.064;2023-04-07T04:05:34;3.50;1.00
12053;DHT22;6087;48.982;12.064;2023-04-07T04:08:02;3.50;1.00
12053;DHT22;6087;48.982;12.064;2023-04-07T04:10:29;3.50;1.00
12053;DHT22;6087;48.982;12.064;2023-04-07T04:12:56;3.40;1.00
12053;DHT22;6087;48.982;12.064;2023-04-07T04:15:25;3.40;1.00
12053;DHT22;6087;48.982;12.064;2023-04-07T04:17:52;3.40;1.00
12053;DHT22;6087;48.982;12.064;2023-04-07T04:20:20;3.40;1.00
12053;DHT22;6087;48.982;12.064;2023-04-07T04:22:47;3.30;1.00
12053;DHT22;6087;48.982;12.064;2023-04-07T04:25:15;3.30;1.00
12053;DHT22;6087;48.982;12.064;2023-04-07T04:27:42;3.30;1.00
12053;DHT22;6087;48.982;12.064;2023-04-07T04:30:10;3.30;1.00
12053;DHT22;6087;48.982;12.064;2023-04-07T04:32:37;3.30;1.00
12053;DHT22;6087;48.982;12.064;2023-04-07T04:35:04;3.20;1.00
12053;DHT22;6087;48.982;12.064;2023-04-07T04:37:33;3.20;1.00
12053;DHT22;6087;48.982;12.064;2023-04-07T04:40:00;3.20;1.00
12053;DHT22;6087;48.982;12.064;2023-04-07T04:42:27;3.20;1.00
12053;DHT22;6087;48.982;12.064;2023-04-07T04:44:56;3.20;1.00
12053;DHT22;6087;48.982;12.064;2023-04-07T04:47:25;3.20;1.00
12053;DHT22;6087;48.982;12.064;2023-04-07T04:49:52;3.10;1.00
12053;DHT22;6087;48.982;12.064;2023-04-07T04:52:25;3.10;1.20
12053;DHT22;6087;48.982;12.064;2023-04-07T04:54:54;3.10;2.00
12053;DHT22;6087;48.982;12.064;2023-04-07T04:57:21;3.10;2.30
12053;DHT22;6087;48.982;12.064;2023-04-07T04:59:48;3.10;2.60
12053;DHT22;6087;48.982;12.064;2023-04-07T05:02:15;3.10;3.50
12053;DHT22;6087;48.982;12.064;2023-04-07T05:04:42;3.10;3.40
12053;DHT22;6087;48.982;12.064;2023-04-07T05:07:18;3.10;4.00
12053;DHT22;6087;48.982;12.064;2023-04-07T05:09:53;3.10;4.80
12053;DHT22;6087;48.982;12.064;2023-04-07T05:12:21;3.10;5.10
12053;DHT22;6087;48.982;12.064;2023-04-07T05:14:48;3.20;5.30
12053;DHT22;6087;48.982;12.064;2023-04-07T05:17:15;3.20;5.90
12053;DHT22;6087;48.982;12.064;2023-04-07T05:19:41;3.20;6.20
12053;DHT22;6087;48.982;12.064;2023-04-07T05:22:08;3.20;6.80
12053;DHT22;6087;48.982;12.064;2023-04-07T05:24:35;3.10;7.00
12053;DHT22;6087;48.982;12.064;2023-04-07T05:27:04;3.20;7.20
12053;DHT22;6087;48.982;12.064;2023-04-07T05:29:31;3.10;7.80
12053;DHT22;6087;48.982;12.064;2023-04-07T05:31:58;3.10;8.20
12053;DHT22;6087;48.982;12.064;2023-04-07T05:34:26;3.20;9.10
12053;DHT22;6087;48.982;12.064;2023-04-07T05:36:53;3.20;8.70
12053;DHT22;6087;48.982;12.064;2023-04-07T05:39:20;3.20;8.90
12053;DHT22;6087;48.982;12.064;2023-04-07T05:41:47;3.30;9.60
12053;DHT22;6087;48.982;12.064;2023-04-07T05:44:15;3.30;10.00
12053;DHT22;6087;48.982;12.064;2023-04-07T05:46:42;3.30;10.00
12053;DHT22;6087;48.982;12.064;2023-04-07T05:49:09;3.40;10.60
12053;DHT22;6087;48.982;12.064;2023-04-07T05:51:36;3.40;10.70
12053;DHT22;6087;48.982;12.064;2023-04-07T05:54:03;3.40;11.60
12053;DHT22;6087;48.982;12.064;2023-04-07T05:56:34;3.50;11.50
12053;DHT22;6087;48.982;12.064;2023-04-07T05:59:01;3.50;11.50
12053;DHT22;6087;48.982;12.064;2023-04-07T06:01:29;3.60;11.60
12053;DHT22;6087;48.982;12.064;2023-04-07T06:03:56;3.60;11.60
12053;DHT22;6087;48.982;12.064;2023-04-07T06:06:24;3.70;11.50
12053;DHT22;6087;48.982;12.064;2023-04-07T06:08:51;3.70;12.10
12053;DHT22;6087;48.982;12.064;2023-04-07T06:11:18;3.80;13.00
12053;DHT22;6087;48.982;12.064;2023-04-07T06:13:45;3.80;12.90
12053;DHT22;6087;48.982;12.064;2023-04-07T06:16:12;3.90;13.40
12053;DHT22;6087;48.982;12.064;2023-04-07T06:18:40;3.90;13.20
12053;DHT22;6087;48.982;12.064;2023-04-07T06:21:07;4.00;13.00
12053;DHT22;6087;48.982;12.064;2023-04-07T06:23:34;4.00;13.50
12053;DHT22;6087;48.982;12.064;2023-04-07T06:26:01;4.10;14.60
12053;DHT22;6087;48.982;12.064;2023-04-07T06:28:28;4.10;13.50
12053;DHT22;6087;48.982;12.064;2023-04-07T06:30:55;4.20;13.60
12053;DHT22;6087;48.982;12.064;2023-04-07T06:33:22;4.20;13.40
12053;DHT22;6087;48.982;12.064;2023-04-07T06:35:51;4.20;14.60
12053;DHT22;6087;48.982;12.064;2023-04-07T06:38:18;4.20;15.60
12053;DHT22;6087;48.982;12.064;2023-04-07T06:40:45;4.30;15.30
12053;DHT22;6087;48.982;12.064;2023-04-07T06:43:12;4.30;14.60
12053;DHT22;6087;48.982;12.064;2023-04-07T06:45:39;4.40;14.60
12053;DHT22;6087;48.982;12.064;2023-04-07T06:48:06;4.50;14.30
12053;DHT22;6087;48.982;12.064;2023-04-07T06:50:35;4.50;14.60
12053;DHT22;6087;48.982;12.064;2023-04-07T06:53:06;4.50;14.80
12053;DHT22;6087;48.982;12.064;2023-04-07T06:55:32;4.60;14.00
12053;DHT22;6087;48.982;12.064;2023-04-07T06:57:59;4.60;15.00
12053;DHT22;6087;48.982;12.064;2023-04-07T07:00:26;4.70;14.00
12053;DHT22;6087;48.982;12.064;2023-04-07T07:02:55;4.70;13.60
12053;DHT22;6087;48.982;12.064;2023-04-07T07:05:22;4.80;14.10
12053;DHT22;6087;48.982;12.064;2023-04-07T07:07:49;4.90;13.50
12053;DHT22;6087;48.982;12.064;2023-04-07T07:10:17;4.90;13.20
12053;DHT22;6087;48.982;12.064;2023-04-07T07:12:47;5.00;13.10
12053;DHT22;6087;48.982;12.064;2023-04-07T07:15:14;5.00;12.90
12053;DHT22;6087;48.982;12.064;2023-04-07T07:17:40;5.10;13.70
12053;DHT22;6087;48.982;12.064;2023-04-07T07:20:09;5.10;13.50
12053;DHT22;6087;48.982;12.064;2023-04-07T07:22:38;5.20;13.40
12053;DHT22;6087;48.982;12.064;2023-04-07T07:25:07;5.30;14.20
12053;DHT22;6087;48.982;12.064;2023-04-07T07:27:38;5.30;13.40
12053;DHT22;6087;48.982;12.064;2023-04-07T07:30:13;5.40;14.10
12053;DHT22;6087;48.982;12.064;2023-04-07T07:32:40;5.50;14.10
12053;DHT22;6087;48.982;12.064;2023-04-07T07:35:07;5.50;13.60
12053;DHT22;6087;48.982;12.064;2023-04-07T07:37:34;5.60;14.80
12053;DHT22;6087;48.982;12.064;2023-04-07T07:40:01;5.60;14.60
12053;DHT22;6087;48.982;12.064;2023-04-07T07:42:31;5.70;15.50
12053;DHT22;6087;48.982;12.064;2023-04-07T07:44:59;5.70;15.80
12053;DHT22;6087;48.982;12.064;2023-04-07T07:47:30;5.80;16.80
12053;DHT22;6087;48.982;12.064;2023-04-07T07:49:57;5.80;17.20
12053;DHT22;6087;48.982;12.064;2023-04-07T07:52:24;5.90;16.60
12053;DHT22;6087;48.982;12.064;2023-04-07T07:54:55;6.00;17.20
12053;DHT22;6087;48.982;12.064;2023-04-07T07:57:24;6.00;18.20
12053;DHT22;6087;48.982;12.064;2023-04-07T07:59:51;6.10;18.00
12053;DHT22;6087;48.982;12.064;2023-04-07T08:02:22;6.20;17.70
12053;DHT22;6087;48.982;12.064;2023-04-07T08:04:54;6.20;16.80
12053;DHT22;6087;48.982;12.064;2023-04-07T08:07:21;6.30;16.70
12053;DHT22;6087;48.982;12.064;2023-04-07T08:09:47;6.30;16.80
12053;DHT22;6087;48.982;12.064;2023-04-07T08:12:15;6.40;16.90
12053;DHT22;6087;48.982;12.064;2023-04-07T08:14:47;6.40;16.00
12053;DHT22;6087;48.982;12.064;2023-04-07T08:17:16;6.50;16.60
12053;DHT22;6087;48.982;12.064;2023-04-07T08:19:45;6.60;16.70
12053;DHT22;6087;48.982;12.064;2023-04-07T08:22:12;6.70;17.00
12053;DHT22;6087;48.982;12.064;2023-04-07T08:24:42;6.70;16.80
12053;DHT22;6087;48.982;12.064;2023-04-07T08:27:09;6.80;16.40
12053;DHT22;6087;48.982;12.064;2023-04-07T08:29:36;6.80;16.60
12053;DHT22;6087;48.982;12.064;2023-04-07T08:32:06;6.90;15.30
12053;DHT22;6087;48.982;12.064;2023-04-07T08:34:33;6.90;15.80
12053;DHT22;6087;48.982;12.064;2023-04-07T08:37:01;7.00;15.80
12053;DHT22;6087;48.982;12.064;2023-04-07T08:39:28;7.00;15.80
12053;DHT22;6087;48.982;12.064;2023-04-07T08:41:56;7.10;15.50
12053;DHT22;6087;48.982;12.064;2023-04-07T08:44:24;7.10;15.80
12053;DHT22;6087;48.982;12.064;2023-04-07T08:46:54;7.20;15.90
12053;DHT22;6087;48.982;12.064;2023-04-07T08:49:23;7.30;15.30
12053;DHT22;6087;48.982;12.064;2023-04-07T08:51:54;7.30;14.90
12053;DHT22;6087;48.982;12.064;2023-04-07T08:54:27;7.30;14.90
12053;DHT22;6087;48.982;12.064;2023-04-07T08:56:55;7.40;13.90
12053;DHT22;6087;48.982;12.064;2023-04-07T08:59:22;7.40;13.60
12053;DHT22;6087;48.982;12.064;2023-04-07T09:01:54;7.40;14.00
12053;DHT22;6087;48.982;12.064;2023-04-07T09:04:21;7.50;14.00
12053;DHT22;6087;48.982;12.064;2023-04-07T09:06:49;7.50;13.40
12053;DHT22;6087;48.982;12.064;2023-04-07T09:09:16;7.50;13.00
12053;DHT22;6087;48.982;12.064;2023-04-07T09:11:46;7.60;13.20
12053;DHT22;6087;48.982;12.064;2023-04-07T09:14:13;7.70;13.50
12053;DHT22;6087;48.982;12.064;2023-04-07T09:16:41;7.70;12.90
12053;DHT22;6087;48.982;12.064;2023-04-07T09:19:08;7.80;13.30
12053;DHT22;6087;48.982;12.064;2023-04-07T09:21:48;7.80;12.50
12053;DHT22;6087;48.982;12.064;2023-04-07T09:24:23;7.90;12.20
12053;DHT22;6087;48.982;12.064;2023-04-07T09:27:08;7.90;12.40
12053;DHT22;6087;48.982;12.064;2023-04-07T09:29:35;8.00;12.20
12053;DHT22;6087;48.982;12.064;2023-04-07T09:32:02;8.00;12.40
12053;DHT22;6087;48.982;12.064;2023-04-07T09:34:35;8.10;12.50
12053;DHT22;6087;48.982;12.064;2023-04-07T09:37:04;8.10;12.30
12053;DHT22;6087;48.982;12.064;2023-04-07T09:39:33;8.20;12.30
12053;DHT22;6087;48.982;12.064;2023-04-07T09:42:15;8.20;11.20
12053;DHT22;6087;48.982;12.064;2023-04-07T09:44:43;8.30;10.80
12053;DHT22;6087;48.982;12.064;2023-04-07T09:47:10;8.30;11.00
12053;DHT22;6087;48.982;12.064;2023-04-07T09:49:48;8.40;9.60
12053;DHT22;6087;48.982;12.064;2023-04-07T09:52:15;8.40;9.50
12053;DHT22;6087;48.982;12.064;2023-04-07T09:54:45;8.50;10.10
12053;DHT22;6087;48.982;12.064;2023-04-07T09:57:12;8.50;10.30
12053;DHT22;6087;48.982;12.064;2023-04-07T09:59:41;8.60;9.40
12053;DHT22;6087;48.982;12.064;2023-04-07T10:02:09;8.70;8.00
12053;DHT22;6087;48.982;12.064;2023-04-07T10:04:37;8.70;7.20
12053;DHT22;6087;48.982;12.064;2023-04-07T10:07:04;8.70;8.10
12053;DHT22;6087;48.982;12.064;2023-04-07T10:09:31;8.80;8.70
12053;DHT22;6087;48.982;12.064;2023-04-07T10:11:59;8.80;7.10
12053;DHT22;6087;48.982;12.064;2023-04-07T10:14:27;8.80;6.80
12053;DHT22;6087;48.982;12.064;2023-04-07T10:16:55;8.90;6.40
12053;DHT22;6087;48.982;12.064;2023-04-07T10:19:24;9.00;6.20
12053;DHT22;6087;48.982;12.064;2023-04-07T10:21:52;9.10;5.50
12053;DHT22;6087;48.982;12.064;2023-04-07T10:24:32;9.20;4.70
12053;DHT22;6087;48.982;12.064;2023-04-07T10:27:05;9.30;4.30
12053;DHT22;6087;48.982;12.064;2023-04-07T10:29:34;9.30;3.80
12053;DHT22;6087;48.982;12.064;2023-04-07T10:32:04;9.40;3.90
12053;DHT22;6087;48.982;12.064;2023-04-07T10:34:55;9.50;3.50
12053;DHT22;6087;48.982;12.064;2023-04-07T10:37:23;9.50;4.40
12053;DHT22;6087;48.982;12.064;2023-04-07T10:39:51;9.60;4.00
12053;DHT22;6087;48.982;12.064;2023-04-07T10:42:45;9.70;4.20
12053;DHT22;6087;48.982;12.064;2023-04-07T10:45:13;9.80;5.80
12053;DHT22;6087;48.982;12.064;2023-04-07T10:48:11;9.90;4.30
12053;DHT22;6087;48.982;12.064;2023-04-07T10:50:38;9.90;4.60
12053;DHT22;6087;48.982;12.064;2023-04-07T10:53:07;10.10;3.60
12053;DHT22;6087;48.982;12.064;2023-04-07T10:55:36;10.10;3.60
12053;DHT22;6087;48.982;12.064;2023-04-07T10:58:20;10.10;2.80
12053;DHT22;6087;48.982;12.064;2023-04-07T11:01:15;10.20;2.70
12053;DHT22;6087;48.982;12.064;2023-04-07T11:03:53;10.30;4.20
12053;DHT22;6087;48.982;12.064;2023-04-07T11:06:20;10.30;3.60
12053;DHT22;6087;48.982;12.064;2023-04-07T11:08:47;10.40;3.10
12053;DHT22;6087;48.982;12.064;2023-04-07T11:11:19;10.50;1.70
12053;DHT22;6087;48.982;12.064;2023-04-07T11:13:47;10.60;1.50
12053;DHT22;6087;48.982;12.064;2023-04-07T11:16:16;10.60;1.30
12053;DHT22;6087;48.982;12.064;2023-04-07T11:18:45;10.70;2.40
12053;DHT22;6087;48.982;12.064;2023-04-07T11:21:17;10.80;2.70
12053;DHT22;6087;48.982;12.064;2023-04-07T11:23:45;10.90;1.60
12053;DHT22;6087;48.982;12.064;2023-04-07T11:26:13;11.00;1.00
12053;DHT22;6087;48.982;12.064;2023-04-07T11:28:44;11.10;1.70
12053;DHT22;6087;48.982;12.064;2023-04-07T11:31:14;11.20;1.00
12053;DHT22;6087;48.982;12.064;2023-04-07T11:33:51;11.30;1.50
12053;DHT22;6087;48.982;12.064;2023-04-07T11:36:25;11.40;1.00
12053;DHT22;6087;48.982;12.064;2023-04-07T11:38:53;11.60;1.00
12053;DHT22;6087;48.982;12.064;2023-04-07T11:41:20;11.70;1.00
12053;DHT22;6087;48.982;12.064;2023-04-07T11:43:47;11.80;1.00
12053;DHT22;6087;48.982;12.064;2023-04-07T11:46:16;11.90;1.00
12053;DHT22;6087;48.982;12.064;2023-04-07T11:48:44;11.90;1.00
12053;DHT22;6087;48.982;12.064;2023-04-07T11:51:16;11.90;1.00
12053;DHT22;6087;48.982;12.064;2023-04-07T11:53:45;12.00;1.00
12053;DHT22;6087;48.982;12.064;2023-04-07T11:56:14;12.00;1.00
12053;DHT22;6087;48.982;12.064;2023-04-07T11:58:46;12.00;1.00
12053;DHT22;6087;48.982;12.064;2023-04-07T12:01:16;12.10;1.00
12053;DHT22;6087;48.982;12.064;2023-04-07T12:03:57;12.20;1.00
12053;DHT22;6087;48.982;12.064;2023-04-07T12:06:28;12.30;1.00
12053;DHT22;6087;48.982;12.064;2023-04-07T12:08:59;12.40;1.00
12053;DHT22;6087;48.982;12.064;2023-04-07T12:11:26;12.50;1.00
12053;DHT22;6087;48.982;12.064;2023-04-07T12:13:54;12.50;1.00
12053;DHT22;6087;48.982;12.064;2023-04-07T12:16:21;12.50;1.00
12053;DHT22;6087;48.982;12.064;2023-04-07T12:18:57;12.60;1.00
12053;DHT22;6087;48.982;12.064;2023-04-07T12:21:27;12.70;1.00
12053;DHT22;6087;48.982;12.064;2023-04-07T12:23:54;12.80;1.00
12053;DHT22;6087;48.982;12.064;2023-04-07T12:26:22;12.80;1.00
12053;DHT22;6087;48.982;12.064;2023-04-07T12:28:50;12.80;1.00
12053;DHT22;6087;48.982;12.064;2023-04-07T12:31:17;12.80;1.00
12053;DHT22;6087;48.982;12.064;2023-04-07T12:33:44;12.80;1.00
12053;DHT22;6087;48.982;12.064;2023-04-07T12:36:11;12.70;1.00
12053;DHT22;6087;48.982;12.064;2023-04-07T12:38:38;12.70;1.00
12053;DHT22;6087;48.982;12.064;2023-04-07T12:41:07;12.60;1.00
12053;DHT22;6087;48.982;12.064;2023-04-07T12:43:36;12.60;1.00
12053;DHT22;6087;48.982;12.064;2023-04-07T12:46:03;12.60;1.00
12053;DHT22;6087;48.982;12.064;2023-04-07T12:48:30;12.60;1.00
12053;DHT22;6087;48.982;12.064;2023-04-07T12:50:57;12.70;1.00
12053;DHT22;6087;48.982;12.064;2023-04-07T12:53:24;12.80;1.00
12053;DHT22;6087;48.982;12.064;2023-04-07T12:55:51;13.00;1.00
12053;DHT22;6087;48.982;12.064;2023-04-07T12:58:18;13.10;1.00
12053;DHT22;6087;48.982;12.064;2023-04-07T13:00:47;13.40;1.00
12053;DHT22;6087;48.982;12.064;2023-04-07T13:03:14;13.50;1.00
12053;DHT22;6087;48.982;12.064;2023-04-07T13:05:41;13.60;1.00
12053;DHT22;6087;48.982;12.064;2023-04-07T13:08:08;13.70;1.00
12053;DHT22;6087;48.982;12.064;2023-04-07T13:10:35;13.80;1.00
12053;DHT22;6087;48.982;12.064;2023-04-07T13:13:02;13.80;1.00
12053;DHT22;6087;48.982;12.064;2023-04-07T13:15:29;13.80;1.00
12053;DHT22;6087;48.982;12.064;2023-04-07T13:17:58;13.70;1.00
12053;DHT22;6087;48.982;12.064;2023-04-07T13:20:25;13.80;1.00
12053;DHT22;6087;48.982;12.064;2023-04-07T13:22:52;13.70;1.00
12053;DHT22;6087;48.982;12.064;2023-04-07T13:25:19;13.80;1.00
12053;DHT22;6087;48.982;12.064;2023-04-07T13:27:50;13.70;1.00
12053;DHT22;6087;48.982;12.064;2023-04-07T13:30:17;13.60;1.00
12053;DHT22;6087;48.982;12.064;2023-04-07T13:32:44;13.60;1.00
12053;DHT22;6087;48.982;12.064;2023-04-07T13:35:15;13.50;1.00
12053;DHT22;6087;48.982;12.064;2023-04-07T13:37:42;13.50;1.00
12053;DHT22;6087;48.982;12.064;2023-04-07T13:40:10;13.50;1.00
12053;DHT22;6087;48.982;12.064;2023-04-07T13:42:38;13.40;1.00
12053;DHT22;6087;48.982;12.064;2023-04-07T13:45:06;13.40;1.00
12053;DHT22;6087;48.982;12.064;2023-04-07T13:47:33;13.60;1.00
12053;DHT22;6087;48.982;12.064;2023-04-07T13:50:00;13.70;1.00
12053;DHT22;6087;48.982;12.064;2023-04-07T13:52:29;13.80;1.00
12053;DHT22;6087;48.982;12.064;2023-04-07T13:54:59;13.90;1.00
12053;DHT22;6087;48.982;12.064;2023-04-07T13:57:26;14.00;1.00
12053;DHT22;6087;48.982;12.064;2023-04-07T13:59:53;14.10;1.00
12053;DHT22;6087;48.982;12.064;2023-04-07T14:02:20;14.20;1.00
12053;DHT22;6087;48.982;12.064;2023-04-07T14:04:48;14.30;1.00
12053;DHT22;6087;48.982;12.064;2023-04-07T14:07:15;14.50;1.00
12053;DHT22;6087;48.982;12.064;2023-04-07T14:09:44;14.60;1.00
12053;DHT22;6087;48.982;12.064;2023-04-07T14:12:12;14.80;1.00
12053;DHT22;6087;48.982;12.064;2023-04-07T14:14:40;14.90;1.00
12053;DHT22;6087;48.982;12.064;2023-04-07T14:17:07;15.00;1.00
12053;DHT22;6087;48.982;12.064;2023-04-07T14:19:34;15.10;1.00
12053;DHT22;6087;48.982;12.064;2023-04-07T14:22:00;15.00;1.00
12053;DHT22;6087;48.982;12.064;2023-04-07T14:24:27;15.00;1.00
12053;DHT22;6087;48.982;12.064;2023-04-07T14:26:56;15.00;1.00
12053;DHT22;6087;48.982;12.064;2023-04-07T14:29:23;15.10;1.00
12053;DHT22;6087;48.982;12.064;2023-04-07T14:31:50;15.20;1.00
12053;DHT22;6087;48.982;12.064;2023-04-07T14:34:17;15.30;1.00
12053;DHT22;6087;48.982;12.064;2023-04-07T14:36:52;15.30;1.00
12053;DHT22;6087;48.982;12.064;2023-04-07T14:39:20;15.30;1.00
12053;DHT22;6087;48.982;12.064;2023-04-07T14:41:47;15.40;1.00
12053;DHT22;6087;48.982;12.064;2023-04-07T14:44:15;15.40;1.00
12053;DHT22;6087;48.982;12.064;2023-04-07T14:46:42;15.30;1.00
12053;DHT22;6087;48.982;12.064;2023-04-07T14:49:09;15.30;1.00
12053;DHT22;6087;48.982;12.064;2023-04-07T14:51:37;15.30;1.00
12053;DHT22;6087;48.982;12.064;2023-04-07T14:54:04;15.40;1.00
12053;DHT22;6087;48.982;12.064;2023-04-07T14:56:31;15.30;1.00
12053;DHT22;6087;48.982;12.064;2023-04-07T14:58:58;15.30;1.00
12053;DHT22;6087;48.982;12.064;2023-04-07T15:01:27;15.40;1.00
12053;DHT22;6087;48.982;12.064;2023-04-07T15:03:54;15.20;1.00
12053;DHT22;6087;48.982;12.064;2023-04-07T15:06:31;15.10;1.00
12053;DHT22;6087;48.982;12.064;2023-04-07T15:08:58;15.00;1.00
12053;DHT22;6087;48.982;12.064;2023-04-07T15:11:25;14.90;1.00
12053;DHT22;6087;48.982;12.064;2023-04-07T15:13:52;14.60;1.00
12053;DHT22;6087;48.982;12.064;2023-04-07T15:16:19;14.50;1.00
12053;DHT22;6087;48.982;12.064;2023-04-07T15:18:50;14.40;1.00
12053;DHT22;6087;48.982;12.064;2023-04-07T15:21:17;14.30;1.00
12053;DHT22;6087;48.982;12.064;2023-04-07T15:23:45;14.20;1.00
12053;DHT22;6087;48.982;12.064;2023-04-07T15:26:12;14.00;1.00
12053;DHT22;6087;48.982;12.064;2023-04-07T15:28:44;13.70;1.00
12053;DHT22;6087;48.982;12.064;2023-04-07T15:31:12;13.70;1.00
12053;DHT22;6087;48.982;12.064;2023-04-07T15:33:43;13.60;1.00
12053;DHT22;6087;48.982;12.064;2023-04-07T15:36:20;13.50;1.00
12053;DHT22;6087;48.982;12.064;2023-04-07T15:38:47;13.50;1.00
12053;DHT22;6087;48.982;12.064;2023-04-07T15:41:19;13.50;1.00
12053;DHT22;6087;48.982;12.064;2023-04-07T15:43:47;13.50;1.00
12053;DHT22;6087;48.982;12.064;2023-04-07T15:46:19;13.50;1.00
12053;DHT22;6087;48.982;12.064;2023-04-07T15:48:45;13.50;1.00
12053;DHT22;6087;48.982;12.064;2023-04-07T15:51:12;13.50;1.00
12053;DHT22;6087;48.982;12.064;2023-04-07T15:53:43;13.40;1.00
12053;DHT22;6087;48.982;12.064;2023-04-07T15:56:11;13.30;1.00
12053;DHT22;6087;48.982;12.064;2023-04-07T15:58:38;13.20;1.00
12053;DHT22;6087;48.982;12.064;2023-04-07T16:01:04;13.10;1.00
12053;DHT22;6087;48.982;12.064;2023-04-07T16:03:31;12.90;1.00
12053;DHT22;6087;48.982;12.064;2023-04-07T16:05:58;12.80;1.00